createdAt,value
2018-02-14T00:02:01.098Z,1.00
2018-02-14T00:04:35.822Z,1.00
2018-02-14T00:07:07.035Z,1.00
2018-02-14T00:09:37.046Z,1.00
2018-02-14T00:12:08.989Z,1.00
2018-02-14T00:14:43.698Z,1.00
2018-02-14T00:17:13.724Z,1.00
2018-02-14T00:19:45.240Z,0.90
2018-02-14T00:22:15.193Z,0.90
2018-02-14T00:24:44.753Z,0.90
2018-02-14T00:27:25.257Z,0.80
2018-02-14T00:30:30.794Z,0.80
2018-02-14T00:33:14.225Z,0.80
2018-02-14T00:35:45.549Z,0.80
2018-02-14T00:38:17.936Z,0.70
2018-02-14T00:40:52.492Z,0.70
2018-02-14T00:43:43.300Z,0.70
2018-02-14T00:46:13.791Z,0.60
2018-02-14T00:48:44.417Z,0.60
2018-02-14T00:51:15.251Z,0.60
2018-02-14T00:53:44.941Z,0.60
2018-02-14T00:56:14.462Z,0.60
2018-02-14T00:58:48.716Z,0.50
2018-02-14T01:01:18.560Z,0.50
2018-02-14T01:03:48.658Z,0.50
2018-02-14T01:06:18.416Z,0.50
2018-02-14T01:08:51.498Z,0.50
2018-02-14T01:11:23.934Z,0.50
2018-02-14T01:13:54.442Z,0.40
2018-02-14T01:16:26.327Z,0.50
2018-02-14T01:18:58.668Z,0.50
2018-02-14T01:21:28.947Z,0.50
2018-02-14T01:24:01.257Z,0.40
2018-02-14T01:26:31.064Z,0.40
2018-02-14T01:29:01.336Z,0.40
2018-02-14T01:31:48.647Z,0.40
2018-02-14T01:34:48.437Z,0.30
2018-02-14T01:38:14.634Z,0.30
2018-02-14T01:40:46.933Z,0.30
2018-02-14T01:43:27.830Z,0.30
2018-02-14T01:49:35.601Z,0.30
2018-02-14T01:55:26.721Z,0.20
2018-02-14T01:57:56.829Z,0.20
2018-02-14T02:00:26.492Z,0.20
2018-02-14T02:02:56.207Z,0.20
2018-02-14T02:05:25.808Z,0.20
2018-02-14T02:07:55.707Z,0.20
2018-02-14T02:10:26.622Z,0.20
2018-02-14T02:12:57.090Z,0.20
2018-02-14T02:15:27.721Z,0.10
2018-02-14T02:17:57.374Z,0.10
2018-02-14T02:20:27.692Z,0.10
2018-02-14T02:23:01.519Z,0.10
2018-02-14T02:25:32.856Z,0.10
2018-02-14T02:28:08.191Z,0.10
2018-02-14T02:30:41.738Z,0.10
2018-02-14T02:33:17.686Z,0.10
2018-02-14T02:35:50.278Z,0.00
2018-02-14T02:38:32.877Z,0.00
2018-02-14T02:41:03.447Z,0.00
2018-02-14T02:43:49.988Z,0.00
2018-02-14T02:46:19.710Z,0.00
2018-02-14T02:48:49.576Z,-0.10
2018-02-14T02:51:22.669Z,0.00
2018-02-14T02:53:52.514Z,-0.10
2018-02-14T02:56:22.123Z,-0.10
2018-02-14T02:58:52.513Z,-0.10
2018-02-14T03:01:22.142Z,-0.10
2018-02-14T03:03:53.252Z,-0.20
2018-02-14T03:06:27.972Z,-0.10
2018-02-14T03:08:58.405Z,-0.20
2018-02-14T03:11:28.199Z,-0.20
2018-02-14T03:13:59.973Z,-0.20
2018-02-14T03:16:30.043Z,-0.20
2018-02-14T03:18:59.507Z,-0.20
2018-02-14T03:21:29.260Z,-0.20
2018-02-14T03:23:59.584Z,-0.30
2018-02-14T03:26:29.170Z,-0.30
2018-02-14T03:28:58.840Z,-0.30
2018-02-14T03:31:28.511Z,-0.30
2018-02-14T03:33:58.870Z,-0.30
2018-02-14T03:36:29.259Z,-0.40
2018-02-14T03:38:59.984Z,-0.40
2018-02-14T03:41:30.360Z,-0.40
2018-02-14T03:43:59.960Z,-0.40
2018-02-14T03:46:29.575Z,-0.40
2018-02-14T03:48:59.909Z,-0.50
2018-02-14T03:51:29.579Z,-0.50
2018-02-14T03:54:00.485Z,-0.50
2018-02-14T03:56:30.159Z,-0.50
2018-02-14T03:58:59.749Z,-0.50
2018-02-14T04:01:32.042Z,-0.50
2018-02-14T04:04:04.795Z,-0.50
2018-02-14T04:06:35.213Z,-0.50
2018-02-14T04:09:05.741Z,-0.60
2018-02-14T04:11:35.275Z,-0.60
2018-02-14T04:14:05.709Z,-0.60
2018-02-14T04:16:36.380Z,-0.70
2018-02-14T04:19:06.165Z,-0.70
2018-02-14T04:21:35.897Z,-0.70
2018-02-14T04:24:05.553Z,-0.60
2018-02-14T04:26:39.110Z,-0.70
2018-02-14T04:29:08.954Z,-0.70
2018-02-14T04:31:38.771Z,-0.70
2018-02-14T04:34:09.573Z,-0.70
2018-02-14T04:36:39.062Z,-0.70
2018-02-14T04:39:08.567Z,-0.70
2018-02-14T04:41:38.187Z,-0.70
2018-02-14T04:44:08.298Z,-0.70
2018-02-14T04:46:37.820Z,-0.70
2018-02-14T04:49:07.359Z,-0.70
2018-02-14T04:51:37.025Z,-0.70
2018-02-14T04:54:08.075Z,-0.70
2018-02-14T04:56:37.907Z,-0.70
2018-02-14T04:59:07.379Z,-0.70
2018-02-14T05:01:37.677Z,-0.70
2018-02-14T05:04:07.705Z,-0.70
2018-02-14T05:06:37.351Z,-0.70
2018-02-14T05:09:08.565Z,-0.70
2018-02-14T05:11:38.055Z,-0.70
2018-02-14T05:14:07.773Z,-0.70
2018-02-14T05:16:37.335Z,-0.60
2018-02-14T05:19:07.302Z,-0.60
2018-02-14T05:21:37.062Z,-0.60
2018-02-14T05:24:06.632Z,-0.70
2018-02-14T05:26:36.864Z,-0.70
2018-02-14T05:29:06.830Z,-0.60
2018-02-14T05:33:00.456Z,-0.60
2018-02-14T05:35:29.910Z,-0.70
2018-02-14T05:38:00.037Z,-0.70
2018-02-14T05:40:29.683Z,-0.60
2018-02-14T05:42:59.659Z,-0.70
2018-02-14T05:45:29.097Z,-0.70
2018-02-14T05:48:02.024Z,-0.60
2018-02-14T05:50:32.017Z,-0.60
2018-02-14T05:53:02.341Z,-0.70
2018-02-14T05:55:31.900Z,-0.70
2018-02-14T05:58:02.913Z,-0.70
2018-02-14T06:03:34.824Z,-0.70
2018-02-14T06:06:07.953Z,-0.70
2018-02-14T06:08:38.572Z,-0.70
2018-02-14T06:11:11.743Z,-0.70
2018-02-14T06:13:42.653Z,-0.70
2018-02-14T06:16:27.511Z,-0.70
2018-02-14T06:19:00.659Z,-0.80
2018-02-14T06:22:12.810Z,-0.80
2018-02-14T06:25:10.451Z,-0.80
2018-02-14T06:27:59.897Z,-0.90
2018-02-14T06:30:33.596Z,-0.90
2018-02-14T06:33:03.111Z,-0.90
2018-02-14T06:35:33.769Z,-0.90
2018-02-14T06:38:06.728Z,-0.90
2018-02-14T06:40:39.717Z,-0.90
2018-02-14T06:43:13.522Z,-0.90
2018-02-14T06:45:43.651Z,-0.90
2018-02-14T06:48:13.276Z,-0.90
2018-02-14T06:50:44.604Z,-0.90
2018-02-14T06:53:16.581Z,-0.90
2018-02-14T06:55:48.520Z,-0.90
2018-02-14T07:01:09.197Z,-0.90
2018-02-14T07:03:41.411Z,-0.90
2018-02-14T07:06:18.926Z,-0.90
2018-02-14T07:08:48.505Z,-0.90
2018-02-14T07:11:18.648Z,-0.80
2018-02-14T07:13:51.732Z,-0.80
2018-02-14T07:16:21.391Z,-0.80
2018-02-14T07:18:52.421Z,-0.80
2018-02-14T07:21:25.326Z,-0.80
2018-02-14T07:23:57.423Z,-0.80
2018-02-14T07:26:27.695Z,-0.80
2018-02-14T07:28:57.465Z,-0.80
2018-02-14T07:31:27.461Z,-0.80
2018-02-14T07:33:58.048Z,-0.80
2018-02-14T07:36:27.561Z,-0.80
2018-02-14T07:38:57.964Z,-0.70
2018-02-14T07:41:29.729Z,-0.70
2018-02-14T07:44:03.096Z,-0.60
2018-02-14T07:46:33.337Z,-0.70
2018-02-14T07:49:05.079Z,-0.60
2018-02-14T07:51:35.787Z,-0.60
2018-02-14T07:54:10.856Z,-0.60
2018-02-14T07:56:40.818Z,-0.50
2018-02-14T07:59:10.872Z,-0.50
2018-02-14T08:01:42.381Z,-0.50
2018-02-14T08:04:12.381Z,-0.40
2018-02-14T08:09:45.051Z,-0.30
2018-02-14T08:12:15.986Z,-0.20
2018-02-14T08:14:47.952Z,-0.10
2018-02-14T08:17:19.739Z,0.00
2018-02-14T08:19:50.933Z,0.00
2018-02-14T08:22:21.531Z,0.00
2018-02-14T08:24:52.822Z,0.00
2018-02-14T08:27:22.315Z,0.00
2018-02-14T08:29:51.909Z,0.00
2018-02-14T08:32:25.165Z,0.20
2018-02-14T08:34:54.859Z,0.10
2018-02-14T08:37:30.824Z,0.20
2018-02-14T08:40:03.054Z,0.20
2018-02-14T08:42:36.752Z,0.20
2018-02-14T08:48:20.571Z,0.50
2018-02-14T08:50:51.167Z,0.50
2018-02-14T08:53:33.806Z,0.50
2018-02-14T08:56:05.760Z,0.60
2018-02-14T08:58:36.388Z,0.60
2018-02-14T09:01:12.125Z,0.70
2018-02-14T09:06:31.062Z,0.80
2018-02-14T09:09:03.822Z,0.80
2018-02-14T09:11:34.637Z,0.80
2018-02-14T09:14:05.588Z,0.80
2018-02-14T09:17:02.802Z,0.90
2018-02-14T09:29:07.298Z,1.10
2018-02-14T09:32:02.156Z,1.10
2018-02-14T09:41:39.748Z,1.40
2018-02-14T09:44:50.402Z,1.60
2018-02-14T09:54:29.603Z,1.80
2018-02-14T10:00:49.047Z,2.00
2018-02-14T10:03:58.522Z,2.00
2018-02-14T10:19:54.033Z,2.60
2018-02-14T10:23:04.673Z,2.70
2018-02-14T10:26:00.052Z,2.70
2018-02-14T10:28:30.930Z,2.70
2018-02-14T10:31:02.874Z,2.80
2018-02-14T10:33:47.672Z,2.90
2018-02-14T10:41:53.748Z,3.00
2018-02-14T10:44:25.063Z,3.10
2018-02-14T10:47:35.575Z,3.10
2018-02-14T10:53:38.861Z,3.00
2018-02-14T10:59:34.544Z,3.30
2018-02-14T11:11:49.398Z,3.60
2018-02-14T11:18:05.726Z,4.80
2018-02-14T11:21:17.915Z,6.30
2018-02-14T11:24:15.712Z,7.40
2018-02-14T11:27:16.614Z,8.00
2018-02-14T11:39:18.660Z,9.30
2018-02-14T11:42:17.151Z,9.20
2018-02-14T11:44:50.697Z,9.40
2018-02-14T11:47:36.166Z,10.40
2018-02-14T11:50:26.487Z,11.10
2018-02-14T11:53:36.268Z,11.00
2018-02-14T11:56:27.134Z,10.70
2018-02-14T11:59:20.451Z,9.70
2018-02-14T12:05:49.234Z,9.70
2018-02-14T12:11:17.925Z,10.80
2018-02-14T12:13:48.805Z,10.70
2018-02-14T12:16:31.007Z,9.90
2018-02-14T12:19:08.779Z,9.90
2018-02-14T12:21:41.845Z,10.10
2018-02-14T12:24:14.520Z,9.20
2018-02-14T12:29:45.684Z,8.50
2018-02-14T12:39:20.584Z,10.40
2018-02-14T12:41:56.573Z,10.40
2018-02-14T12:47:49.910Z,8.80
2018-02-14T12:51:01.014Z,9.50
2018-02-14T13:10:36.085Z,10.20
2018-02-14T13:13:25.145Z,10.70
2018-02-14T13:15:56.885Z,10.70
2018-02-14T13:21:50.823Z,10.30
2018-02-14T13:28:00.633Z,10.70
2018-02-14T13:33:56.965Z,11.90
2018-02-14T13:46:35.045Z,12.50
2018-02-14T14:01:59.400Z,14.10
2018-02-14T14:07:29.130Z,14.20
2018-02-14T14:10:09.745Z,12.60
2018-02-14T14:12:42.874Z,12.60
2018-02-14T14:21:27.832Z,13.20
2018-02-14T14:24:28.773Z,11.80
2018-02-14T14:27:12.716Z,11.80
2018-02-14T14:39:21.071Z,11.50
2018-02-14T14:42:20.063Z,11.60
2018-02-14T14:48:25.994Z,10.50
2018-02-14T14:51:34.190Z,10.60
2018-02-14T14:57:43.953Z,9.00
2018-02-14T15:00:55.121Z,7.70
2018-02-14T15:06:59.197Z,6.90
2018-02-14T15:09:43.350Z,6.50
2018-02-14T15:15:29.884Z,6.20
2018-02-14T15:18:40.274Z,6.20
2018-02-14T15:24:44.573Z,6.30
2018-02-14T15:33:44.646Z,6.90
2018-02-14T15:36:26.693Z,6.60
2018-02-14T15:39:30.612Z,6.30
2018-02-14T15:42:15.550Z,6.20
2018-02-14T15:44:49.731Z,5.90
2018-02-14T15:50:54.123Z,5.80
2018-02-14T15:57:26.620Z,5.60
2018-02-14T16:00:27.754Z,5.60
2018-02-14T16:06:25.209Z,5.60
2018-02-14T16:12:46.469Z,5.40
2018-02-14T16:18:07.926Z,5.30
2018-02-14T16:31:15.363Z,5.10
2018-02-14T16:47:04.016Z,4.90
2018-02-14T16:50:14.036Z,4.90
2018-02-14T17:02:40.506Z,5.00
2018-02-14T17:15:25.619Z,5.00
2018-02-14T17:28:06.706Z,4.70
2018-02-14T17:37:12.169Z,4.60
2018-02-14T17:40:01.005Z,4.70
2018-02-14T17:42:37.722Z,4.60
2018-02-14T17:58:37.720Z,4.40
2018-02-14T18:01:12.088Z,4.40
2018-02-14T18:03:50.569Z,4.40
2018-02-14T18:23:24.732Z,4.30
2018-02-14T18:26:14.719Z,4.40
2018-02-14T18:35:33.266Z,4.20
2018-02-14T18:58:04.829Z,3.90
2018-02-14T19:01:22.208Z,3.90
2018-02-14T19:07:50.806Z,3.90
2018-02-14T19:20:20.602Z,3.80
2018-02-14T19:23:36.021Z,3.80
2018-02-14T19:37:59.907Z,3.70
2018-02-14T19:44:13.702Z,3.70
2018-02-14T19:46:52.198Z,3.80
2018-02-14T19:49:27.506Z,3.80
2018-02-14T19:55:30.400Z,3.80
2018-02-14T20:01:42.114Z,3.80
2018-02-14T20:04:43.403Z,3.70
2018-02-14T20:07:58.259Z,3.70
2018-02-14T20:20:29.763Z,3.50
2018-02-14T20:23:09.378Z,3.50
2018-02-14T20:28:58.135Z,3.50
2018-02-14T20:34:37.205Z,3.50
2018-02-14T20:37:20.440Z,3.40
2018-02-14T20:40:04.972Z,3.40
2018-02-14T20:42:53.604Z,3.50
2018-02-14T20:52:07.554Z,3.40
2018-02-14T20:55:06.866Z,3.50
2018-02-14T20:57:40.693Z,3.50
2018-02-14T21:00:23.080Z,3.60
2018-02-14T21:03:06.129Z,3.50
2018-02-14T21:15:03.477Z,3.50
2018-02-14T21:18:04.398Z,3.50
2018-02-14T21:21:01.080Z,3.50
2018-02-14T21:27:13.597Z,3.40
2018-02-14T21:33:22.863Z,3.40
2018-02-14T21:42:51.717Z,3.40
2018-02-14T21:46:01.624Z,3.50
2018-02-14T21:49:01.981Z,3.40
2018-02-14T21:51:51.479Z,3.50
2018-02-14T22:04:09.342Z,3.50
2018-02-14T22:07:15.736Z,3.50
2018-02-14T22:09:51.901Z,3.50
2018-02-14T22:12:25.828Z,3.50
2018-02-14T22:15:03.503Z,3.50
2018-02-14T22:17:36.295Z,3.40
2018-02-14T22:20:26.466Z,3.30
2018-02-14T22:23:07.969Z,3.30
2018-02-14T22:25:51.560Z,3.30
2018-02-14T22:28:39.201Z,3.20
2018-02-14T22:31:24.072Z,3.10
2018-02-14T22:34:09.060Z,3.10
2018-02-14T22:36:46.628Z,3.00
2018-02-14T22:39:28.492Z,2.90
2018-02-14T22:42:17.264Z,2.90
2018-02-14T22:44:49.843Z,2.90
2018-02-14T22:47:26.864Z,2.80
2018-02-14T22:50:02.579Z,2.80
2018-02-14T22:52:41.052Z,2.80
2018-02-14T22:55:16.712Z,2.90
2018-02-14T22:58:06.650Z,2.90
2018-02-14T23:00:56.616Z,2.80
2018-02-14T23:03:47.982Z,2.90
2018-02-14T23:06:24.440Z,3.00
2018-02-14T23:09:17.651Z,3.00
2018-02-14T23:11:50.186Z,3.10
2018-02-14T23:14:39.251Z,3.10
2018-02-14T23:17:30.018Z,3.10
2018-02-14T23:20:07.768Z,3.10
2018-02-14T23:22:42.835Z,3.00
2018-02-14T23:25:23.009Z,3.10
2018-02-14T23:28:01.452Z,3.10
2018-02-14T23:30:40.709Z,3.10
2018-02-14T23:33:15.185Z,3.10
2018-02-14T23:35:46.875Z,3.10
2018-02-14T23:38:17.213Z,3.20
2018-02-14T23:40:49.917Z,3.10
2018-02-14T23:43:21.878Z,3.10
2018-02-14T23:45:55.177Z,3.10
2018-02-14T23:48:26.431Z,3.10
2018-02-14T23:50:57.020Z,3.10
2018-02-14T23:53:28.166Z,3.10
